CheckWX is a tool to help pilots better visualize weather data.  It is not intended as a substitute for an official pre-flight weather briefing.

04:27:09 UTC

KRCM METAR
Skyhaven Airport
Warrensburg, Missouri, USA
Current

12 hours ago

KRCM 261615Z AUTO 32005KT 10SM CLR 26/16 A3010 RMK AO2
Observed
Jun-26 @ 16:15 UTC
Wind
  • 320° at 5 KTS
Visibility
10 SM
Flight Rules
VFR
Cloud Levels
  • Clear skies
Temperature
26°C / 79°F
Dewpoint
16°C / 61°F
Humidity
54%
Altimeter
30.1" Hg
Pressure
1019.32 hPa
Previous

14 hours ago

KRCM 261435Z AUTO 00000KT 10SM CLR 23/17 A3008 RMK AO2
Observed
Jun-26 @ 14:35 UTC
Visibility
10 SM
Flight Rules
VFR
Cloud Levels
  • Clear skies
Temperature
23°C / 73°F
Dewpoint
17°C / 63°F
Humidity
69%
Altimeter
30.08" Hg
Pressure
1018.62 hPa
Previous

19 hours ago

KRCM 260915Z AUTO 18004KT 10SM CLR 22/20 A3000 RMK AO2
Observed
Jun-26 @ 09:15 UTC
Wind
  • 180° at 4 KTS
Visibility
10 SM
Flight Rules
VFR
Cloud Levels
  • Clear skies
Temperature
22°C / 72°F
Dewpoint
20°C / 68°F
Humidity
88%
Altimeter
30" Hg
Pressure
1015.92 hPa